sensor_id;sensor_type;location;lat;lon;timestamp;P1;durP1;ratioP1;P2;durP2;ratioP2
1276;SDS011;631;51.024;13.826;2024-02-28T00:00:10;46.80;;;31.47;;
1276;SDS011;631;51.024;13.826;2024-02-28T00:02:36;49.42;;;30.70;;
1276;SDS011;631;51.024;13.826;2024-02-28T00:05:02;46.73;;;31.23;;
1276;SDS011;631;51.024;13.826;2024-02-28T00:07:28;54.60;;;31.90;;
1276;SDS011;631;51.024;13.826;2024-02-28T00:09:53;44.13;;;31.07;;
1276;SDS011;631;51.024;13.826;2024-02-28T00:12:22;44.47;;;29.93;;
1276;SDS011;631;51.024;13.826;2024-02-28T00:14:50;48.67;;;31.13;;
1276;SDS011;631;51.024;13.826;2024-02-28T00:17:16;41.53;;;30.20;;
1276;SDS011;631;51.024;13.826;2024-02-28T00:19:41;47.03;;;31.63;;
1276;SDS011;631;51.024;13.826;2024-02-28T00:22:08;43.30;;;31.13;;
1276;SDS011;631;51.024;13.826;2024-02-28T00:24:34;46.35;;;30.25;;
1276;SDS011;631;51.024;13.826;2024-02-28T00:26:59;43.27;;;29.70;;
1276;SDS011;631;51.024;13.826;2024-02-28T00:29:25;44.97;;;31.25;;
1276;SDS011;631;51.024;13.826;2024-02-28T00:31:51;37.57;;;29.47;;
1276;SDS011;631;51.024;13.826;2024-02-28T00:34:17;41.77;;;30.60;;
1276;SDS011;631;51.024;13.826;2024-02-28T00:36:42;40.67;;;30.07;;
1276;SDS011;631;51.024;13.826;2024-02-28T00:39:08;38.00;;;31.33;;
1276;SDS011;631;51.024;13.826;2024-02-28T00:41:35;46.57;;;31.73;;
1276;SDS011;631;51.024;13.826;2024-02-28T00:44:01;42.40;;;29.40;;
1276;SDS011;631;51.024;13.826;2024-02-28T00:46:27;39.87;;;30.40;;
1276;SDS011;631;51.024;13.826;2024-02-28T00:48:53;37.27;;;29.43;;
1276;SDS011;631;51.024;13.826;2024-02-28T00:51:19;37.60;;;31.37;;
1276;SDS011;631;51.024;13.826;2024-02-28T00:53:44;37.90;;;29.50;;
1276;SDS011;631;51.024;13.826;2024-02-28T00:56:10;38.93;;;29.80;;
1276;SDS011;631;51.024;13.826;2024-02-28T00:58:35;38.03;;;28.80;;
1276;SDS011;631;51.024;13.826;2024-02-28T01:01:01;41.13;;;30.70;;
1276;SDS011;631;51.024;13.826;2024-02-28T01:03:27;45.30;;;31.13;;
1276;SDS011;631;51.024;13.826;2024-02-28T01:05:53;33.67;;;29.07;;
1276;SDS011;631;51.024;13.826;2024-02-28T01:08:18;32.97;;;28.07;;
1276;SDS011;631;51.024;13.826;2024-02-28T01:10:44;38.53;;;28.70;;
1276;SDS011;631;51.024;13.826;2024-02-28T01:13:11;35.13;;;28.23;;
1276;SDS011;631;51.024;13.826;2024-02-28T01:15:36;35.37;;;28.87;;
1276;SDS011;631;51.024;13.826;2024-02-28T01:18:04;31.92;;;27.25;;
1276;SDS011;631;51.024;13.826;2024-02-28T01:20:30;34.47;;;27.43;;
1276;SDS011;631;51.024;13.826;2024-02-28T01:22:55;35.63;;;28.40;;
1276;SDS011;631;51.024;13.826;2024-02-28T01:25:21;35.73;;;28.53;;
1276;SDS011;631;51.024;13.826;2024-02-28T01:27:46;34.10;;;27.27;;
1276;SDS011;631;51.024;13.826;2024-02-28T01:30:12;35.60;;;30.13;;
1276;SDS011;631;51.024;13.826;2024-02-28T01:32:38;33.17;;;26.80;;
1276;SDS011;631;51.024;13.826;2024-02-28T01:35:03;33.90;;;27.63;;
1276;SDS011;631;51.024;13.826;2024-02-28T01:37:29;39.13;;;29.03;;
1276;SDS011;631;51.024;13.826;2024-02-28T01:39:55;37.80;;;28.13;;
1276;SDS011;631;51.024;13.826;2024-02-28T01:42:20;33.37;;;28.73;;
1276;SDS011;631;51.024;13.826;2024-02-28T01:44:47;34.10;;;27.90;;
1276;SDS011;631;51.024;13.826;2024-02-28T01:47:16;36.20;;;28.00;;
1276;SDS011;631;51.024;13.826;2024-02-28T01:49:42;30.83;;;26.20;;
1276;SDS011;631;51.024;13.826;2024-02-28T01:52:11;33.40;;;28.07;;
1276;SDS011;631;51.024;13.826;2024-02-28T01:54:37;30.07;;;26.30;;
1276;SDS011;631;51.024;13.826;2024-02-28T01:57:04;41.30;;;28.07;;
1276;SDS011;631;51.024;13.826;2024-02-28T01:59:31;34.63;;;27.50;;
1276;SDS011;631;51.024;13.826;2024-02-28T02:01:58;37.50;;;26.70;;
1276;SDS011;631;51.024;13.826;2024-02-28T02:04:24;34.20;;;27.30;;
1276;SDS011;631;51.024;13.826;2024-02-28T02:06:50;32.30;;;26.73;;
1276;SDS011;631;51.024;13.826;2024-02-28T02:09:19;35.63;;;26.35;;
1276;SDS011;631;51.024;13.826;2024-02-28T02:11:44;33.87;;;27.20;;
1276;SDS011;631;51.024;13.826;2024-02-28T02:14:10;35.50;;;27.30;;
1276;SDS011;631;51.024;13.826;2024-02-28T02:16:36;34.37;;;27.37;;
1276;SDS011;631;51.024;13.826;2024-02-28T02:19:02;32.73;;;25.00;;
1276;SDS011;631;51.024;13.826;2024-02-28T02:21:34;34.75;;;27.20;;
1276;SDS011;631;51.024;13.826;2024-02-28T02:24:02;33.67;;;26.90;;
1276;SDS011;631;51.024;13.826;2024-02-28T02:26:28;37.90;;;27.03;;
1276;SDS011;631;51.024;13.826;2024-02-28T02:28:54;38.60;;;27.60;;
1276;SDS011;631;51.024;13.826;2024-02-28T02:31:19;34.93;;;26.20;;
1276;SDS011;631;51.024;13.826;2024-02-28T02:33:45;34.47;;;24.83;;
1276;SDS011;631;51.024;13.826;2024-02-28T02:36:10;36.33;;;26.00;;
1276;SDS011;631;51.024;13.826;2024-02-28T02:38:36;39.47;;;25.80;;
1276;SDS011;631;51.024;13.826;2024-02-28T02:41:02;35.30;;;26.87;;
1276;SDS011;631;51.024;13.826;2024-02-28T02:43:27;35.60;;;26.00;;
1276;SDS011;631;51.024;13.826;2024-02-28T02:45:53;37.67;;;27.03;;
1276;SDS011;631;51.024;13.826;2024-02-28T02:48:18;37.93;;;26.70;;
1276;SDS011;631;51.024;13.826;2024-02-28T02:50:44;33.43;;;26.20;;
1276;SDS011;631;51.024;13.826;2024-02-28T02:53:10;36.73;;;25.50;;
1276;SDS011;631;51.024;13.826;2024-02-28T02:55:36;36.15;;;27.02;;
1276;SDS011;631;51.024;13.826;2024-02-28T02:58:02;36.90;;;26.50;;
1276;SDS011;631;51.024;13.826;2024-02-28T03:00:28;36.40;;;26.53;;
1276;SDS011;631;51.024;13.826;2024-02-28T03:02:54;34.67;;;25.65;;
1276;SDS011;631;51.024;13.826;2024-02-28T03:05:20;33.00;;;25.73;;
1276;SDS011;631;51.024;13.826;2024-02-28T03:07:45;33.40;;;26.30;;
1276;SDS011;631;51.024;13.826;2024-02-28T03:10:11;37.63;;;27.63;;
1276;SDS011;631;51.024;13.826;2024-02-28T03:12:36;35.53;;;26.20;;
1276;SDS011;631;51.024;13.826;2024-02-28T03:15:02;32.97;;;26.97;;
1276;SDS011;631;51.024;13.826;2024-02-28T03:17:28;31.30;;;26.27;;
1276;SDS011;631;51.024;13.826;2024-02-28T03:19:54;37.27;;;25.90;;
1276;SDS011;631;51.024;13.826;2024-02-28T03:22:20;42.17;;;26.90;;
1276;SDS011;631;51.024;13.826;2024-02-28T03:24:46;38.63;;;26.70;;
1276;SDS011;631;51.024;13.826;2024-02-28T03:27:11;41.13;;;26.23;;
1276;SDS011;631;51.024;13.826;2024-02-28T03:29:37;35.37;;;25.67;;
1276;SDS011;631;51.024;13.826;2024-02-28T03:32:03;37.73;;;26.17;;
1276;SDS011;631;51.024;13.826;2024-02-28T03:34:29;38.30;;;26.40;;
1276;SDS011;631;51.024;13.826;2024-02-28T03:36:55;36.63;;;25.65;;
1276;SDS011;631;51.024;13.826;2024-02-28T03:39:21;40.63;;;28.70;;
1276;SDS011;631;51.024;13.826;2024-02-28T03:41:46;40.33;;;28.20;;
1276;SDS011;631;51.024;13.826;2024-02-28T03:44:12;36.30;;;25.80;;
1276;SDS011;631;51.024;13.826;2024-02-28T03:46:37;43.17;;;27.07;;
1276;SDS011;631;51.024;13.826;2024-02-28T03:49:03;36.60;;;26.70;;
1276;SDS011;631;51.024;13.826;2024-02-28T03:51:28;32.60;;;24.90;;
1276;SDS011;631;51.024;13.826;2024-02-28T03:53:54;36.40;;;26.50;;
1276;SDS011;631;51.024;13.826;2024-02-28T03:56:24;31.50;;;25.97;;
1276;SDS011;631;51.024;13.826;2024-02-28T03:58:50;31.17;;;25.63;;
1276;SDS011;631;51.024;13.826;2024-02-28T04:01:16;34.80;;;24.85;;
1276;SDS011;631;51.024;13.826;2024-02-28T04:03:42;30.88;;;26.75;;
1276;SDS011;631;51.024;13.826;2024-02-28T04:06:08;30.97;;;25.80;;
1276;SDS011;631;51.024;13.826;2024-02-28T04:08:33;35.30;;;26.67;;
1276;SDS011;631;51.024;13.826;2024-02-28T04:10:59;36.20;;;26.70;;
1276;SDS011;631;51.024;13.826;2024-02-28T04:13:25;34.90;;;25.23;;
1276;SDS011;631;51.024;13.826;2024-02-28T04:15:51;36.70;;;27.00;;
1276;SDS011;631;51.024;13.826;2024-02-28T04:18:16;34.33;;;26.03;;
1276;SDS011;631;51.024;13.826;2024-02-28T04:20:42;35.70;;;25.57;;
1276;SDS011;631;51.024;13.826;2024-02-28T04:23:08;31.90;;;25.60;;
1276;SDS011;631;51.024;13.826;2024-02-28T04:25:33;34.30;;;24.70;;
1276;SDS011;631;51.024;13.826;2024-02-28T04:28:00;37.05;;;25.63;;
1276;SDS011;631;51.024;13.826;2024-02-28T04:30:25;33.13;;;25.50;;
1276;SDS011;631;51.024;13.826;2024-02-28T04:32:51;34.60;;;26.10;;
1276;SDS011;631;51.024;13.826;2024-02-28T04:35:16;33.27;;;25.73;;
1276;SDS011;631;51.024;13.826;2024-02-28T04:37:44;30.00;;;24.95;;
1276;SDS011;631;51.024;13.826;2024-02-28T04:40:12;34.90;;;24.48;;
1276;SDS011;631;51.024;13.826;2024-02-28T04:42:39;26.57;;;23.60;;
1276;SDS011;631;51.024;13.826;2024-02-28T04:45:04;33.85;;;24.13;;
1276;SDS011;631;51.024;13.826;2024-02-28T04:47:30;28.52;;;23.17;;
1276;SDS011;631;51.024;13.826;2024-02-28T04:49:56;26.37;;;22.90;;
1276;SDS011;631;51.024;13.826;2024-02-28T04:52:22;27.02;;;22.23;;
1276;SDS011;631;51.024;13.826;2024-02-28T04:54:49;30.25;;;23.27;;
1276;SDS011;631;51.024;13.826;2024-02-28T04:57:15;27.40;;;22.57;;
1276;SDS011;631;51.024;13.826;2024-02-28T04:59:42;25.73;;;22.17;;
1276;SDS011;631;51.024;13.826;2024-02-28T05:02:09;29.05;;;24.25;;
1276;SDS011;631;51.024;13.826;2024-02-28T05:04:34;27.53;;;23.60;;
1276;SDS011;631;51.024;13.826;2024-02-28T05:07:00;27.40;;;22.10;;
1276;SDS011;631;51.024;13.826;2024-02-28T05:09:26;26.03;;;23.20;;
1276;SDS011;631;51.024;13.826;2024-02-28T05:11:54;37.33;;;24.35;;
1276;SDS011;631;51.024;13.826;2024-02-28T05:14:20;34.30;;;22.70;;
1276;SDS011;631;51.024;13.826;2024-02-28T05:16:49;31.27;;;22.83;;
1276;SDS011;631;51.024;13.826;2024-02-28T05:19:14;35.50;;;25.10;;
1276;SDS011;631;51.024;13.826;2024-02-28T05:21:42;27.77;;;23.33;;
1276;SDS011;631;51.024;13.826;2024-02-28T05:24:08;35.08;;;22.50;;
1276;SDS011;631;51.024;13.826;2024-02-28T05:26:35;26.37;;;22.57;;
1276;SDS011;631;51.024;13.826;2024-02-28T05:29:01;28.90;;;21.52;;
1276;SDS011;631;51.024;13.826;2024-02-28T05:31:28;30.88;;;22.00;;
1276;SDS011;631;51.024;13.826;2024-02-28T05:33:55;28.60;;;21.77;;
1276;SDS011;631;51.024;13.826;2024-02-28T05:36:22;30.33;;;23.85;;
1276;SDS011;631;51.024;13.826;2024-02-28T05:38:48;30.52;;;22.40;;
1276;SDS011;631;51.024;13.826;2024-02-28T05:41:15;31.70;;;22.35;;
1276;SDS011;631;51.024;13.826;2024-02-28T05:43:41;34.95;;;21.75;;
1276;SDS011;631;51.024;13.826;2024-02-28T05:46:07;37.33;;;22.97;;
1276;SDS011;631;51.024;13.826;2024-02-28T05:48:32;34.37;;;23.97;;
1276;SDS011;631;51.024;13.826;2024-02-28T05:51:00;32.53;;;23.27;;
1276;SDS011;631;51.024;13.826;2024-02-28T05:53:26;35.25;;;22.98;;
1276;SDS011;631;51.024;13.826;2024-02-28T05:55:52;29.07;;;23.13;;
1276;SDS011;631;51.024;13.826;2024-02-28T05:58:19;29.35;;;23.77;;
1276;SDS011;631;51.024;13.826;2024-02-28T06:00:44;32.60;;;22.90;;
1276;SDS011;631;51.024;13.826;2024-02-28T06:03:10;25.73;;;21.40;;
1276;SDS011;631;51.024;13.826;2024-02-28T06:05:36;33.03;;;22.13;;
1276;SDS011;631;51.024;13.826;2024-02-28T06:08:01;36.00;;;23.87;;
1276;SDS011;631;51.024;13.826;2024-02-28T06:10:27;28.63;;;23.23;;
1276;SDS011;631;51.024;13.826;2024-02-28T06:12:53;34.95;;;22.75;;
1276;SDS011;631;51.024;13.826;2024-02-28T06:15:19;29.60;;;23.67;;
1276;SDS011;631;51.024;13.826;2024-02-28T06:17:45;37.10;;;25.33;;
1276;SDS011;631;51.024;13.826;2024-02-28T06:20:10;31.37;;;23.10;;
1276;SDS011;631;51.024;13.826;2024-02-28T06:22:36;24.93;;;21.80;;
1276;SDS011;631;51.024;13.826;2024-02-28T06:25:01;36.40;;;23.80;;
1276;SDS011;631;51.024;13.826;2024-02-28T06:27:27;34.63;;;22.10;;
1276;SDS011;631;51.024;13.826;2024-02-28T06:29:53;30.23;;;22.57;;
1276;SDS011;631;51.024;13.826;2024-02-28T06:32:18;29.87;;;22.77;;
1276;SDS011;631;51.024;13.826;2024-02-28T06:34:44;30.50;;;22.20;;
1276;SDS011;631;51.024;13.826;2024-02-28T06:37:10;27.43;;;22.03;;
1276;SDS011;631;51.024;13.826;2024-02-28T06:39:35;35.53;;;23.27;;
1276;SDS011;631;51.024;13.826;2024-02-28T06:42:01;38.80;;;22.90;;
1276;SDS011;631;51.024;13.826;2024-02-28T06:44:26;27.23;;;21.37;;
1276;SDS011;631;51.024;13.826;2024-02-28T06:46:52;29.90;;;23.13;;
1276;SDS011;631;51.024;13.826;2024-02-28T06:49:17;31.33;;;21.90;;
1276;SDS011;631;51.024;13.826;2024-02-28T06:51:44;32.40;;;23.33;;
1276;SDS011;631;51.024;13.826;2024-02-28T06:54:10;34.33;;;23.13;;
1276;SDS011;631;51.024;13.826;2024-02-28T06:56:35;35.30;;;24.00;;
1276;SDS011;631;51.024;13.826;2024-02-28T06:59:01;37.07;;;24.87;;
1276;SDS011;631;51.024;13.826;2024-02-28T07:01:28;32.72;;;23.83;;
1276;SDS011;631;51.024;13.826;2024-02-28T07:03:54;38.70;;;23.03;;
1276;SDS011;631;51.024;13.826;2024-02-28T07:06:20;30.87;;;22.93;;
1276;SDS011;631;51.024;13.826;2024-02-28T07:08:45;33.60;;;23.70;;
1276;SDS011;631;51.024;13.826;2024-02-28T07:11:14;36.77;;;23.77;;
1276;SDS011;631;51.024;13.826;2024-02-28T07:13:40;37.13;;;24.65;;
1276;SDS011;631;51.024;13.826;2024-02-28T07:16:06;35.63;;;24.40;;
1276;SDS011;631;51.024;13.826;2024-02-28T07:18:32;37.83;;;25.97;;
1276;SDS011;631;51.024;13.826;2024-02-28T07:20:58;35.50;;;24.10;;
1276;SDS011;631;51.024;13.826;2024-02-28T07:23:24;34.40;;;25.33;;
1276;SDS011;631;51.024;13.826;2024-02-28T07:25:50;36.27;;;24.87;;
1276;SDS011;631;51.024;13.826;2024-02-28T07:28:15;37.73;;;24.03;;
1276;SDS011;631;51.024;13.826;2024-02-28T07:30:41;41.60;;;26.07;;
1276;SDS011;631;51.024;13.826;2024-02-28T07:33:09;38.42;;;26.23;;
1276;SDS011;631;51.024;13.826;2024-02-28T07:35:44;40.30;;;25.63;;
1276;SDS011;631;51.024;13.826;2024-02-28T07:38:13;43.67;;;26.50;;
1276;SDS011;631;51.024;13.826;2024-02-28T07:40:39;38.43;;;25.40;;
1276;SDS011;631;51.024;13.826;2024-02-28T07:43:05;39.53;;;23.90;;
1276;SDS011;631;51.024;13.826;2024-02-28T07:45:31;37.53;;;23.13;;
1276;SDS011;631;51.024;13.826;2024-02-28T07:47:56;38.03;;;23.37;;
1276;SDS011;631;51.024;13.826;2024-02-28T07:50:22;31.33;;;22.93;;
1276;SDS011;631;51.024;13.826;2024-02-28T07:52:48;29.43;;;20.70;;
1276;SDS011;631;51.024;13.826;2024-02-28T07:55:13;32.73;;;22.87;;
1276;SDS011;631;51.024;13.826;2024-02-28T07:57:39;26.43;;;19.03;;
1276;SDS011;631;51.024;13.826;2024-02-28T08:00:05;26.23;;;20.17;;
1276;SDS011;631;51.024;13.826;2024-02-28T08:02:31;23.40;;;20.60;;
1276;SDS011;631;51.024;13.826;2024-02-28T08:04:57;32.70;;;20.83;;
1276;SDS011;631;51.024;13.826;2024-02-28T08:07:22;30.67;;;21.23;;
1276;SDS011;631;51.024;13.826;2024-02-28T08:09:48;25.67;;;20.03;;
1276;SDS011;631;51.024;13.826;2024-02-28T08:12:13;30.53;;;21.00;;
1276;SDS011;631;51.024;13.826;2024-02-28T08:14:39;23.07;;;19.00;;
1276;SDS011;631;51.024;13.826;2024-02-28T08:17:04;23.70;;;18.47;;
1276;SDS011;631;51.024;13.826;2024-02-28T08:19:30;26.97;;;20.87;;
1276;SDS011;631;51.024;13.826;2024-02-28T08:21:55;20.97;;;18.77;;
1276;SDS011;631;51.024;13.826;2024-02-28T08:24:21;25.57;;;19.90;;
1276;SDS011;631;51.024;13.826;2024-02-28T08:26:47;24.10;;;20.07;;
1276;SDS011;631;51.024;13.826;2024-02-28T08:29:13;23.37;;;19.40;;
1276;SDS011;631;51.024;13.826;2024-02-28T08:31:43;23.53;;;19.60;;
1276;SDS011;631;51.024;13.826;2024-02-28T08:34:08;29.33;;;20.08;;
1276;SDS011;631;51.024;13.826;2024-02-28T08:36:35;25.00;;;18.77;;
1276;SDS011;631;51.024;13.826;2024-02-28T08:39:00;22.23;;;19.27;;
1276;SDS011;631;51.024;13.826;2024-02-28T08:41:26;27.20;;;20.87;;
1276;SDS011;631;51.024;13.826;2024-02-28T08:43:52;21.40;;;18.57;;
1276;SDS011;631;51.024;13.826;2024-02-28T08:46:17;30.20;;;19.83;;
1276;SDS011;631;51.024;13.826;2024-02-28T08:48:43;31.43;;;19.20;;
1276;SDS011;631;51.024;13.826;2024-02-28T08:51:09;24.37;;;20.57;;
1276;SDS011;631;51.024;13.826;2024-02-28T08:53:34;25.60;;;20.73;;
1276;SDS011;631;51.024;13.826;2024-02-28T08:56:00;23.53;;;19.70;;
1276;SDS011;631;51.024;13.826;2024-02-28T08:58:25;24.50;;;19.97;;
1276;SDS011;631;51.024;13.826;2024-02-28T09:00:51;26.73;;;20.70;;
1276;SDS011;631;51.024;13.826;2024-02-28T09:03:17;28.37;;;20.80;;
1276;SDS011;631;51.024;13.826;2024-02-28T09:05:42;22.70;;;20.20;;
1276;SDS011;631;51.024;13.826;2024-02-28T09:08:08;25.67;;;20.30;;
1276;SDS011;631;51.024;13.826;2024-02-28T09:10:34;26.53;;;20.07;;
1276;SDS011;631;51.024;13.826;2024-02-28T09:12:59;26.33;;;20.07;;
1276;SDS011;631;51.024;13.826;2024-02-28T09:15:25;23.93;;;19.17;;
1276;SDS011;631;51.024;13.826;2024-02-28T09:17:51;22.53;;;20.13;;
1276;SDS011;631;51.024;13.826;2024-02-28T09:20:17;26.17;;;20.35;;
1276;SDS011;631;51.024;13.826;2024-02-28T09:22:42;27.07;;;20.20;;
1276;SDS011;631;51.024;13.826;2024-02-28T09:25:08;23.33;;;20.73;;
1276;SDS011;631;51.024;13.826;2024-02-28T09:27:35;24.15;;;18.83;;
1276;SDS011;631;51.024;13.826;2024-02-28T09:30:02;21.80;;;19.08;;
1276;SDS011;631;51.024;13.826;2024-02-28T09:32:28;24.85;;;19.60;;
1276;SDS011;631;51.024;13.826;2024-02-28T09:34:53;22.17;;;19.70;;
1276;SDS011;631;51.024;13.826;2024-02-28T09:37:19;29.73;;;20.10;;
1276;SDS011;631;51.024;13.826;2024-02-28T09:39:47;22.57;;;17.80;;
1276;SDS011;631;51.024;13.826;2024-02-28T09:42:13;21.57;;;18.10;;
1276;SDS011;631;51.024;13.826;2024-02-28T09:44:40;27.73;;;20.07;;
1276;SDS011;631;51.024;13.826;2024-02-28T09:47:07;23.47;;;18.80;;
1276;SDS011;631;51.024;13.826;2024-02-28T09:49:33;24.63;;;20.17;;
1276;SDS011;631;51.024;13.826;2024-02-28T09:52:01;23.40;;;20.90;;
1276;SDS011;631;51.024;13.826;2024-02-28T09:54:29;22.50;;;20.10;;
1276;SDS011;631;51.024;13.826;2024-02-28T09:56:55;22.20;;;19.80;;
1276;SDS011;631;51.024;13.826;2024-02-28T09:59:21;25.13;;;20.97;;
1276;SDS011;631;51.024;13.826;2024-02-28T10:01:53;24.05;;;20.58;;
1276;SDS011;631;51.024;13.826;2024-02-28T10:04:23;25.15;;;20.10;;
1276;SDS011;631;51.024;13.826;2024-02-28T10:06:50;26.20;;;19.88;;
1276;SDS011;631;51.024;13.826;2024-02-28T10:09:16;25.50;;;21.53;;
1276;SDS011;631;51.024;13.826;2024-02-28T10:11:42;25.30;;;21.13;;
1276;SDS011;631;51.024;13.826;2024-02-28T10:14:17;25.90;;;20.83;;
1276;SDS011;631;51.024;13.826;2024-02-28T10:16:46;32.13;;;22.40;;
1276;SDS011;631;51.024;13.826;2024-02-28T10:19:11;29.60;;;23.13;;
1276;SDS011;631;51.024;13.826;2024-02-28T10:21:37;31.00;;;23.37;;
1276;SDS011;631;51.024;13.826;2024-02-28T10:24:04;30.13;;;22.73;;
1276;SDS011;631;51.024;13.826;2024-02-28T10:26:30;32.23;;;23.10;;
1276;SDS011;631;51.024;13.826;2024-02-28T10:28:59;27.88;;;22.50;;
1276;SDS011;631;51.024;13.826;2024-02-28T10:31:25;32.00;;;24.03;;
1276;SDS011;631;51.024;13.826;2024-02-28T10:33:51;35.30;;;22.50;;
1276;SDS011;631;51.024;13.826;2024-02-28T10:36:17;33.23;;;23.33;;
1276;SDS011;631;51.024;13.826;2024-02-28T10:38:43;31.70;;;22.90;;
1276;SDS011;631;51.024;13.826;2024-02-28T10:41:09;27.07;;;22.03;;
1276;SDS011;631;51.024;13.826;2024-02-28T10:43:38;31.80;;;23.77;;
1276;SDS011;631;51.024;13.826;2024-02-28T10:46:05;31.25;;;23.98;;
1276;SDS011;631;51.024;13.826;2024-02-28T10:48:33;28.67;;;23.80;;
1276;SDS011;631;51.024;13.826;2024-02-28T10:50:58;31.10;;;24.63;;
1276;SDS011;631;51.024;13.826;2024-02-28T10:53:37;30.00;;;24.23;;
1276;SDS011;631;51.024;13.826;2024-02-28T10:56:06;35.80;;;24.90;;
1276;SDS011;631;51.024;13.826;2024-02-28T10:58:36;29.60;;;23.25;;
1276;SDS011;631;51.024;13.826;2024-02-28T11:01:06;30.47;;;24.23;;
1276;SDS011;631;51.024;13.826;2024-02-28T11:03:33;31.87;;;23.47;;
1276;SDS011;631;51.024;13.826;2024-02-28T11:05:59;30.60;;;23.83;;
1276;SDS011;631;51.024;13.826;2024-02-28T11:08:27;32.97;;;24.27;;
1276;SDS011;631;51.024;13.826;2024-02-28T11:10:57;33.80;;;24.67;;
1276;SDS011;631;51.024;13.826;2024-02-28T11:13:24;24.50;;;20.80;;
1276;SDS011;631;51.024;13.826;2024-02-28T11:15:51;29.57;;;22.20;;
1276;SDS011;631;51.024;13.826;2024-02-28T11:18:17;30.13;;;23.30;;
1276;SDS011;631;51.024;13.826;2024-02-28T11:20:44;31.70;;;22.07;;
1276;SDS011;631;51.024;13.826;2024-02-28T11:23:13;31.73;;;22.77;;
1276;SDS011;631;51.024;13.826;2024-02-28T11:25:41;30.03;;;22.43;;
1276;SDS011;631;51.024;13.826;2024-02-28T11:28:07;25.43;;;22.30;;
1276;SDS011;631;51.024;13.826;2024-02-28T11:30:34;33.33;;;23.35;;
1276;SDS011;631;51.024;13.826;2024-02-28T11:32:59;29.00;;;22.43;;
1276;SDS011;631;51.024;13.826;2024-02-28T11:35:25;31.10;;;22.07;;
1276;SDS011;631;51.024;13.826;2024-02-28T11:37:53;27.67;;;22.80;;
1276;SDS011;631;51.024;13.826;2024-02-28T11:40:22;24.97;;;22.27;;
1276;SDS011;631;51.024;13.826;2024-02-28T11:42:52;25.30;;;22.30;;
1276;SDS011;631;51.024;13.826;2024-02-28T11:45:18;27.23;;;21.33;;
1276;SDS011;631;51.024;13.826;2024-02-28T11:47:44;25.67;;;21.67;;
1276;SDS011;631;51.024;13.826;2024-02-28T11:50:10;29.73;;;22.33;;
1276;SDS011;631;51.024;13.826;2024-02-28T11:52:36;25.17;;;21.90;;
1276;SDS011;631;51.024;13.826;2024-02-28T11:55:02;25.10;;;20.90;;
1276;SDS011;631;51.024;13.826;2024-02-28T11:57:28;25.47;;;21.97;;
1276;SDS011;631;51.024;13.826;2024-02-28T11:59:58;23.13;;;19.43;;
1276;SDS011;631;51.024;13.826;2024-02-28T12:02:33;24.13;;;19.70;;
1276;SDS011;631;51.024;13.826;2024-02-28T12:05:04;21.87;;;19.17;;
1276;SDS011;631;51.024;13.826;2024-02-28T12:07:30;22.70;;;20.33;;
1276;SDS011;631;51.024;13.826;2024-02-28T12:09:57;25.80;;;20.10;;
1276;SDS011;631;51.024;13.826;2024-02-28T12:12:23;22.87;;;20.00;;
1276;SDS011;631;51.024;13.826;2024-02-28T12:14:49;24.43;;;20.60;;
1276;SDS011;631;51.024;13.826;2024-02-28T12:17:15;24.03;;;20.77;;
1276;SDS011;631;51.024;13.826;2024-02-28T12:19:41;21.00;;;18.63;;
1276;SDS011;631;51.024;13.826;2024-02-28T12:22:07;22.00;;;18.10;;
1276;SDS011;631;51.024;13.826;2024-02-28T12:24:33;21.67;;;19.37;;
1276;SDS011;631;51.024;13.826;2024-02-28T12:26:59;24.93;;;20.00;;
1276;SDS011;631;51.024;13.826;2024-02-28T12:29:24;23.33;;;19.70;;
1276;SDS011;631;51.024;13.826;2024-02-28T12:31:50;23.00;;;19.77;;
1276;SDS011;631;51.024;13.826;2024-02-28T12:34:15;23.93;;;19.60;;
1276;SDS011;631;51.024;13.826;2024-02-28T12:36:41;20.40;;;18.27;;
1276;SDS011;631;51.024;13.826;2024-02-28T12:39:07;24.47;;;20.80;;
1276;SDS011;631;51.024;13.826;2024-02-28T12:41:36;24.73;;;19.50;;
1276;SDS011;631;51.024;13.826;2024-02-28T12:44:03;22.40;;;19.70;;
1276;SDS011;631;51.024;13.826;2024-02-28T12:46:29;26.30;;;20.17;;
1276;SDS011;631;51.024;13.826;2024-02-28T12:48:55;29.43;;;21.63;;
1276;SDS011;631;51.024;13.826;2024-02-28T12:51:38;27.67;;;21.40;;
1276;SDS011;631;51.024;13.826;2024-02-28T12:54:09;25.60;;;20.73;;
1276;SDS011;631;51.024;13.826;2024-02-28T12:56:36;25.60;;;21.40;;
1276;SDS011;631;51.024;13.826;2024-02-28T12:59:02;26.43;;;21.80;;
1276;SDS011;631;51.024;13.826;2024-02-28T13:01:28;24.80;;;22.00;;
1276;SDS011;631;51.024;13.826;2024-02-28T13:03:55;27.07;;;22.10;;
1276;SDS011;631;51.024;13.826;2024-02-28T13:06:21;27.53;;;21.70;;
1276;SDS011;631;51.024;13.826;2024-02-28T13:08:47;28.83;;;22.33;;
1276;SDS011;631;51.024;13.826;2024-02-28T13:11:17;27.20;;;21.77;;
1276;SDS011;631;51.024;13.826;2024-02-28T13:13:47;28.40;;;21.60;;
1276;SDS011;631;51.024;13.826;2024-02-28T13:16:14;26.27;;;22.67;;
1276;SDS011;631;51.024;13.826;2024-02-28T13:18:40;31.07;;;22.03;;
1276;SDS011;631;51.024;13.826;2024-02-28T13:21:06;28.00;;;22.77;;
1276;SDS011;631;51.024;13.826;2024-02-28T13:23:31;28.13;;;23.40;;
1276;SDS011;631;51.024;13.826;2024-02-28T13:25:58;30.67;;;23.60;;
1276;SDS011;631;51.024;13.826;2024-02-28T13:28:25;25.00;;;22.30;;
1276;SDS011;631;51.024;13.826;2024-02-28T13:30:57;26.80;;;22.10;;
1276;SDS011;631;51.024;13.826;2024-02-28T13:33:24;24.70;;;22.10;;
1276;SDS011;631;51.024;13.826;2024-02-28T13:35:50;29.50;;;22.20;;
1276;SDS011;631;51.024;13.826;2024-02-28T13:38:16;27.13;;;21.50;;
1276;SDS011;631;51.024;13.826;2024-02-28T13:40:44;24.97;;;21.60;;
1276;SDS011;631;51.024;13.826;2024-02-28T13:43:13;25.10;;;22.37;;
1276;SDS011;631;51.024;13.826;2024-02-28T13:45:39;27.60;;;22.33;;
1276;SDS011;631;51.024;13.826;2024-02-28T13:48:14;25.57;;;22.73;;
1276;SDS011;631;51.024;13.826;2024-02-28T13:50:46;26.30;;;23.47;;
1276;SDS011;631;51.024;13.826;2024-02-28T13:53:12;27.47;;;22.87;;
1276;SDS011;631;51.024;13.826;2024-02-28T13:55:43;25.90;;;22.60;;
1276;SDS011;631;51.024;13.826;2024-02-28T13:58:10;25.43;;;21.50;;
1276;SDS011;631;51.024;13.826;2024-02-28T14:00:37;28.27;;;23.40;;
1276;SDS011;631;51.024;13.826;2024-02-28T14:03:03;29.60;;;23.43;;
1276;SDS011;631;51.024;13.826;2024-02-28T14:05:29;27.47;;;23.83;;
1276;SDS011;631;51.024;13.826;2024-02-28T14:07:55;25.40;;;22.70;;
1276;SDS011;631;51.024;13.826;2024-02-28T14:10:22;28.87;;;24.53;;
1276;SDS011;631;51.024;13.826;2024-02-28T14:12:48;27.47;;;24.57;;
1276;SDS011;631;51.024;13.826;2024-02-28T14:15:14;28.07;;;25.13;;
1276;SDS011;631;51.024;13.826;2024-02-28T14:17:40;28.73;;;24.70;;
1276;SDS011;631;51.024;13.826;2024-02-28T14:20:06;30.20;;;25.57;;
1276;SDS011;631;51.024;13.826;2024-02-28T14:22:33;29.90;;;25.17;;
1276;SDS011;631;51.024;13.826;2024-02-28T14:24:59;28.90;;;25.60;;
1276;SDS011;631;51.024;13.826;2024-02-28T14:27:25;27.60;;;24.60;;
1276;SDS011;631;51.024;13.826;2024-02-28T14:29:55;28.60;;;25.60;;
1276;SDS011;631;51.024;13.826;2024-02-28T14:32:20;27.20;;;24.50;;
1276;SDS011;631;51.024;13.826;2024-02-28T14:34:47;30.23;;;27.23;;
1276;SDS011;631;51.024;13.826;2024-02-28T14:37:14;28.70;;;25.60;;
1276;SDS011;631;51.024;13.826;2024-02-28T14:39:39;27.33;;;24.73;;
1276;SDS011;631;51.024;13.826;2024-02-28T14:42:05;28.97;;;26.07;;